Big Piney, WY weather

Big Piney-Marbleton Airport (AMOS), Big Piney, WY: 9/01/2015 09:53
Visibility10 statute milessun with a few clouds
View 7-Day Forecast
Area Summary
Sky/CloudsFew at 11000ft
Weather [last 24 hours]None
Pressure30.21 in.Hg (1023 hPa)
Dew Point26.1 F (-3.3 C)
Relative Humidity30.2 %
Temperature57 F (13.9 C)red thermometer
Reading TimeMinimum to Maximum Temperature
6-hr ending 9/1@05:5336 F to 48.9 F (2.2 C to 9.4 C)
6-hr ending 8/31@23:5346 F to 77 F (7.8 C to 25 C)
6-hr ending 8/31@17:5368 F to 80.1 F (20 C to 26.7 C)
6-hr ending 8/31@11:5336 F to 69.1 F (2.2 C to 20.6 C)
24-hr ending 9/1@00:5336 F to 80.1 F (2.2 C to 26.7 C)
Wind0 MPH (0 KT) green arrow pointing at 0 degrees
Wind FromNorth (000 Degrees)
Rolling 24-hr Peak Wind33.4 MPH (29 KT) on 8/31@14:45
Rolling 24-hr Peak Wind FromWest (260 Degrees)
Twilight Begins06:16Sunshine Yesterday
Sunrise06:45N/A
Sunset19:55
Twilight Ends20:24
METARKBPI 011553Z AUTO 00000KT 10SM FEW110 14/M03 A3021 RMK AO2 SLP157 T01391033
Tags: